sensor_id;sensor_type;location;lat;lon;timestamp;temperature;humidity
15596;DHT22;7898;48.658;9.068;2023-03-05T00:01:25;2.30;99.90
15596;DHT22;7898;48.658;9.068;2023-03-05T00:03:54;2.30;99.90
15596;DHT22;7898;48.658;9.068;2023-03-05T00:06:22;2.50;99.90
15596;DHT22;7898;48.658;9.068;2023-03-05T00:08:50;2.40;99.90
15596;DHT22;7898;48.658;9.068;2023-03-05T00:11:18;2.80;99.90
15596;DHT22;7898;48.658;9.068;2023-03-05T00:13:46;2.80;99.90
15596;DHT22;7898;48.658;9.068;2023-03-05T00:16:15;2.40;99.90
15596;DHT22;7898;48.658;9.068;2023-03-05T00:18:42;2.70;99.90
15596;DHT22;7898;48.658;9.068;2023-03-05T00:21:18;2.80;99.90
15596;DHT22;7898;48.658;9.068;2023-03-05T00:23:45;2.30;99.90
15596;DHT22;7898;48.658;9.068;2023-03-05T00:26:12;2.30;99.90
15596;DHT22;7898;48.658;9.068;2023-03-05T00:28:39;2.30;99.90
15596;DHT22;7898;48.658;9.068;2023-03-05T00:31:06;2.30;99.90
15596;DHT22;7898;48.658;9.068;2023-03-05T00:33:34;2.30;99.90
15596;DHT22;7898;48.658;9.068;2023-03-05T00:36:04;2.80;99.90
15596;DHT22;7898;48.658;9.068;2023-03-05T00:38:32;2.20;99.90
15596;DHT22;7898;48.658;9.068;2023-03-05T00:40:59;2.20;99.90
15596;DHT22;7898;48.658;9.068;2023-03-05T00:43:26;2.20;99.90
15596;DHT22;7898;48.658;9.068;2023-03-05T00:45:53;2.30;99.90
15596;DHT22;7898;48.658;9.068;2023-03-05T00:48:20;2.60;99.90
15596;DHT22;7898;48.658;9.068;2023-03-05T00:50:49;2.50;99.90
15596;DHT22;7898;48.658;9.068;2023-03-05T00:53:16;2.30;99.90
15596;DHT22;7898;48.658;9.068;2023-03-05T00:55:43;2.30;99.90
15596;DHT22;7898;48.658;9.068;2023-03-05T00:58:10;2.20;99.90
15596;DHT22;7898;48.658;9.068;2023-03-05T01:00:36;2.80;99.90
15596;DHT22;7898;48.658;9.068;2023-03-05T01:03:03;2.20;99.90
15596;DHT22;7898;48.658;9.068;2023-03-05T01:05:30;2.20;99.90
15596;DHT22;7898;48.658;9.068;2023-03-05T01:07:59;2.20;99.90
15596;DHT22;7898;48.658;9.068;2023-03-05T01:10:26;2.20;99.90
15596;DHT22;7898;48.658;9.068;2023-03-05T01:12:54;2.20;99.90
15596;DHT22;7898;48.658;9.068;2023-03-05T01:15:22;2.20;99.90
15596;DHT22;7898;48.658;9.068;2023-03-05T01:17:48;2.20;99.90
15596;DHT22;7898;48.658;9.068;2023-03-05T01:20:19;2.20;99.90
15596;DHT22;7898;48.658;9.068;2023-03-05T01:22:46;2.20;99.90
15596;DHT22;7898;48.658;9.068;2023-03-05T01:25:15;2.20;99.90
15596;DHT22;7898;48.658;9.068;2023-03-05T01:27:42;2.20;99.90
15596;DHT22;7898;48.658;9.068;2023-03-05T01:30:11;2.20;99.90
15596;DHT22;7898;48.658;9.068;2023-03-05T01:32:38;2.20;99.90
15596;DHT22;7898;48.658;9.068;2023-03-05T01:35:06;2.70;99.90
15596;DHT22;7898;48.658;9.068;2023-03-05T01:37:33;2.20;99.90
15596;DHT22;7898;48.658;9.068;2023-03-05T01:40:00;2.10;99.90
15596;DHT22;7898;48.658;9.068;2023-03-05T01:42:28;2.20;99.90
15596;DHT22;7898;48.658;9.068;2023-03-05T01:45:12;2.60;99.90
15596;DHT22;7898;48.658;9.068;2023-03-05T01:47:39;2.20;99.90
15596;DHT22;7898;48.658;9.068;2023-03-05T01:50:09;2.20;99.90
15596;DHT22;7898;48.658;9.068;2023-03-05T01:52:39;2.10;99.90
15596;DHT22;7898;48.658;9.068;2023-03-05T01:55:10;2.30;99.90
15596;DHT22;7898;48.658;9.068;2023-03-05T01:57:43;2.20;99.90
15596;DHT22;7898;48.658;9.068;2023-03-05T02:00:13;2.30;99.90
15596;DHT22;7898;48.658;9.068;2023-03-05T02:02:43;2.20;99.90
15596;DHT22;7898;48.658;9.068;2023-03-05T02:05:12;2.20;99.90
15596;DHT22;7898;48.658;9.068;2023-03-05T02:07:41;2.10;99.90
15596;DHT22;7898;48.658;9.068;2023-03-05T02:10:18;2.10;99.90
15596;DHT22;7898;48.658;9.068;2023-03-05T02:12:48;2.10;99.90
15596;DHT22;7898;48.658;9.068;2023-03-05T02:15:16;2.40;99.90
15596;DHT22;7898;48.658;9.068;2023-03-05T02:17:43;2.10;99.90
15596;DHT22;7898;48.658;9.068;2023-03-05T02:20:15;2.00;99.90
15596;DHT22;7898;48.658;9.068;2023-03-05T02:22:44;2.00;99.90
15596;DHT22;7898;48.658;9.068;2023-03-05T02:25:13;1.90;99.90
15596;DHT22;7898;48.658;9.068;2023-03-05T02:27:43;1.50;99.90
15596;DHT22;7898;48.658;9.068;2023-03-05T02:30:13;1.90;99.90
15596;DHT22;7898;48.658;9.068;2023-03-05T02:32:40;1.90;99.90
15596;DHT22;7898;48.658;9.068;2023-03-05T02:35:07;1.90;99.90
15596;DHT22;7898;48.658;9.068;2023-03-05T02:37:34;2.00;99.90
15596;DHT22;7898;48.658;9.068;2023-03-05T02:40:04;2.50;99.90
15596;DHT22;7898;48.658;9.068;2023-03-05T02:42:34;2.00;99.90
15596;DHT22;7898;48.658;9.068;2023-03-05T02:45:01;2.10;99.90
15596;DHT22;7898;48.658;9.068;2023-03-05T02:47:29;2.70;99.90
15596;DHT22;7898;48.658;9.068;2023-03-05T02:49:56;2.40;99.90
15596;DHT22;7898;48.658;9.068;2023-03-05T02:52:23;2.10;99.90
15596;DHT22;7898;48.658;9.068;2023-03-05T02:54:50;2.00;99.90
15596;DHT22;7898;48.658;9.068;2023-03-05T02:57:18;1.90;99.90
15596;DHT22;7898;48.658;9.068;2023-03-05T02:59:46;1.90;99.90
15596;DHT22;7898;48.658;9.068;2023-03-05T03:02:13;2.70;99.90
15596;DHT22;7898;48.658;9.068;2023-03-05T03:04:41;1.90;99.90
15596;DHT22;7898;48.658;9.068;2023-03-05T03:07:09;2.00;99.90
15596;DHT22;7898;48.658;9.068;2023-03-05T03:09:37;2.50;99.90
15596;DHT22;7898;48.658;9.068;2023-03-05T03:12:04;2.60;99.90
15596;DHT22;7898;48.658;9.068;2023-03-05T03:14:33;2.00;99.90
15596;DHT22;7898;48.658;9.068;2023-03-05T03:17:04;2.00;99.90
15596;DHT22;7898;48.658;9.068;2023-03-05T03:19:31;2.00;99.90
15596;DHT22;7898;48.658;9.068;2023-03-05T03:21:58;2.30;99.90
15596;DHT22;7898;48.658;9.068;2023-03-05T03:24:25;2.60;99.90
15596;DHT22;7898;48.658;9.068;2023-03-05T03:26:52;2.00;99.90
15596;DHT22;7898;48.658;9.068;2023-03-05T03:29:19;2.30;99.90
15596;DHT22;7898;48.658;9.068;2023-03-05T03:31:47;2.00;99.90
15596;DHT22;7898;48.658;9.068;2023-03-05T03:34:15;2.00;99.90
15596;DHT22;7898;48.658;9.068;2023-03-05T03:36:43;2.00;99.90
15596;DHT22;7898;48.658;9.068;2023-03-05T03:39:11;2.00;99.90
15596;DHT22;7898;48.658;9.068;2023-03-05T03:41:41;2.30;99.90
15596;DHT22;7898;48.658;9.068;2023-03-05T03:44:08;2.00;99.90
15596;DHT22;7898;48.658;9.068;2023-03-05T03:46:35;2.00;99.90
15596;DHT22;7898;48.658;9.068;2023-03-05T03:49:05;2.00;99.90
15596;DHT22;7898;48.658;9.068;2023-03-05T03:51:33;2.20;99.90
15596;DHT22;7898;48.658;9.068;2023-03-05T03:54:00;1.90;99.90
15596;DHT22;7898;48.658;9.068;2023-03-05T03:56:27;1.90;99.90
15596;DHT22;7898;48.658;9.068;2023-03-05T03:58:54;1.90;99.90
15596;DHT22;7898;48.658;9.068;2023-03-05T04:01:20;2.90;99.90
15596;DHT22;7898;48.658;9.068;2023-03-05T04:03:47;2.10;99.90
15596;DHT22;7898;48.658;9.068;2023-03-05T04:06:16;2.10;99.90
15596;DHT22;7898;48.658;9.068;2023-03-05T04:08:43;2.90;99.90
15596;DHT22;7898;48.658;9.068;2023-03-05T04:11:09;2.60;99.90
15596;DHT22;7898;48.658;9.068;2023-03-05T04:13:36;2.70;99.90
15596;DHT22;7898;48.658;9.068;2023-03-05T04:16:04;2.70;99.90
15596;DHT22;7898;48.658;9.068;2023-03-05T04:18:31;2.10;99.90
15596;DHT22;7898;48.658;9.068;2023-03-05T04:20:58;3.10;99.90
15596;DHT22;7898;48.658;9.068;2023-03-05T04:23:26;2.20;99.90
15596;DHT22;7898;48.658;9.068;2023-03-05T04:25:53;2.30;99.90
15596;DHT22;7898;48.658;9.068;2023-03-05T04:28:20;2.20;99.90
15596;DHT22;7898;48.658;9.068;2023-03-05T04:30:47;2.20;99.90
15596;DHT22;7898;48.658;9.068;2023-03-05T04:33:14;2.20;99.90
15596;DHT22;7898;48.658;9.068;2023-03-05T04:35:41;2.20;99.90
15596;DHT22;7898;48.658;9.068;2023-03-05T04:38:09;2.50;99.90
15596;DHT22;7898;48.658;9.068;2023-03-05T04:40:37;2.20;99.90
15596;DHT22;7898;48.658;9.068;2023-03-05T04:43:04;2.20;99.90
15596;DHT22;7898;48.658;9.068;2023-03-05T04:45:32;2.20;99.90
15596;DHT22;7898;48.658;9.068;2023-03-05T04:47:59;2.20;99.90
15596;DHT22;7898;48.658;9.068;2023-03-05T04:50:26;2.20;99.90
15596;DHT22;7898;48.658;9.068;2023-03-05T04:52:53;2.80;99.90
15596;DHT22;7898;48.658;9.068;2023-03-05T04:55:20;2.20;99.90
15596;DHT22;7898;48.658;9.068;2023-03-05T04:57:51;2.10;99.90
15596;DHT22;7898;48.658;9.068;2023-03-05T05:00:19;2.10;99.90
15596;DHT22;7898;48.658;9.068;2023-03-05T05:02:47;2.20;99.90
15596;DHT22;7898;48.658;9.068;2023-03-05T05:05:16;2.20;99.90
15596;DHT22;7898;48.658;9.068;2023-03-05T05:07:44;2.20;99.90
15596;DHT22;7898;48.658;9.068;2023-03-05T05:10:12;2.20;99.90
15596;DHT22;7898;48.658;9.068;2023-03-05T05:12:39;2.20;99.90
15596;DHT22;7898;48.658;9.068;2023-03-05T05:15:10;2.20;99.90
15596;DHT22;7898;48.658;9.068;2023-03-05T05:17:37;2.20;99.90
15596;DHT22;7898;48.658;9.068;2023-03-05T05:20:05;2.20;99.90
15596;DHT22;7898;48.658;9.068;2023-03-05T05:22:33;2.20;99.90
15596;DHT22;7898;48.658;9.068;2023-03-05T05:25:00;2.20;99.90
15596;DHT22;7898;48.658;9.068;2023-03-05T05:27:27;2.20;99.90
15596;DHT22;7898;48.658;9.068;2023-03-05T05:29:54;2.70;99.90
15596;DHT22;7898;48.658;9.068;2023-03-05T05:32:23;2.10;99.90
15596;DHT22;7898;48.658;9.068;2023-03-05T05:34:53;2.10;99.90
15596;DHT22;7898;48.658;9.068;2023-03-05T05:37:20;2.20;99.90
15596;DHT22;7898;48.658;9.068;2023-03-05T05:39:48;2.00;99.90
15596;DHT22;7898;48.658;9.068;2023-03-05T05:42:16;2.00;99.90
15596;DHT22;7898;48.658;9.068;2023-03-05T05:44:43;2.00;99.90
15596;DHT22;7898;48.658;9.068;2023-03-05T05:47:10;2.00;99.90
15596;DHT22;7898;48.658;9.068;2023-03-05T05:49:38;2.00;99.90
15596;DHT22;7898;48.658;9.068;2023-03-05T05:52:06;1.90;99.90
15596;DHT22;7898;48.658;9.068;2023-03-05T05:54:33;1.80;99.90
15596;DHT22;7898;48.658;9.068;2023-03-05T05:57:00;2.10;99.90
15596;DHT22;7898;48.658;9.068;2023-03-05T05:59:27;2.40;99.90
15596;DHT22;7898;48.658;9.068;2023-03-05T06:01:54;2.70;99.90
15596;DHT22;7898;48.658;9.068;2023-03-05T06:04:21;1.80;99.90
15596;DHT22;7898;48.658;9.068;2023-03-05T06:06:50;1.90;99.90
15596;DHT22;7898;48.658;9.068;2023-03-05T06:09:16;1.90;99.90
15596;DHT22;7898;48.658;9.068;2023-03-05T06:11:43;1.90;99.90
15596;DHT22;7898;48.658;9.068;2023-03-05T06:14:11;1.90;99.90
15596;DHT22;7898;48.658;9.068;2023-03-05T06:16:38;2.90;99.90
15596;DHT22;7898;48.658;9.068;2023-03-05T06:19:05;2.70;99.90
15596;DHT22;7898;48.658;9.068;2023-03-05T06:21:32;1.90;99.90
15596;DHT22;7898;48.658;9.068;2023-03-05T06:24:01;1.90;99.90
15596;DHT22;7898;48.658;9.068;2023-03-05T06:26:28;1.90;99.90
15596;DHT22;7898;48.658;9.068;2023-03-05T06:28:55;1.90;99.90
15596;DHT22;7898;48.658;9.068;2023-03-05T06:31:25;1.90;99.90
15596;DHT22;7898;48.658;9.068;2023-03-05T06:33:53;1.80;99.90
15596;DHT22;7898;48.658;9.068;2023-03-05T06:36:21;2.20;99.90
15596;DHT22;7898;48.658;9.068;2023-03-05T06:38:48;2.20;99.90
15596;DHT22;7898;48.658;9.068;2023-03-05T06:41:19;1.80;99.90
15596;DHT22;7898;48.658;9.068;2023-03-05T06:43:47;1.90;99.90
15596;DHT22;7898;48.658;9.068;2023-03-05T06:46:16;1.80;99.90
15596;DHT22;7898;48.658;9.068;2023-03-05T06:48:43;2.30;99.90
15596;DHT22;7898;48.658;9.068;2023-03-05T06:51:14;1.90;99.90
15596;DHT22;7898;48.658;9.068;2023-03-05T06:53:41;2.50;99.90
15596;DHT22;7898;48.658;9.068;2023-03-05T06:56:08;2.00;99.90
15596;DHT22;7898;48.658;9.068;2023-03-05T06:58:37;2.10;99.90
15596;DHT22;7898;48.658;9.068;2023-03-05T07:01:04;2.10;99.90
15596;DHT22;7898;48.658;9.068;2023-03-05T07:03:32;2.20;99.90
15596;DHT22;7898;48.658;9.068;2023-03-05T07:06:02;2.40;99.90
15596;DHT22;7898;48.658;9.068;2023-03-05T07:08:29;2.20;99.90
15596;DHT22;7898;48.658;9.068;2023-03-05T07:10:57;2.30;99.90
15596;DHT22;7898;48.658;9.068;2023-03-05T07:13:25;2.30;99.90
15596;DHT22;7898;48.658;9.068;2023-03-05T07:15:54;2.30;99.90
15596;DHT22;7898;48.658;9.068;2023-03-05T07:18:21;2.40;99.90
15596;DHT22;7898;48.658;9.068;2023-03-05T07:20:48;2.60;99.90
15596;DHT22;7898;48.658;9.068;2023-03-05T07:23:15;2.50;99.90
15596;DHT22;7898;48.658;9.068;2023-03-05T07:25:42;2.50;99.90
15596;DHT22;7898;48.658;9.068;2023-03-05T07:28:09;2.60;99.90
15596;DHT22;7898;48.658;9.068;2023-03-05T07:30:36;2.60;99.90
15596;DHT22;7898;48.658;9.068;2023-03-05T07:33:04;2.90;99.90
15596;DHT22;7898;48.658;9.068;2023-03-05T07:35:31;3.30;99.90
15596;DHT22;7898;48.658;9.068;2023-03-05T07:37:58;2.70;99.90
15596;DHT22;7898;48.658;9.068;2023-03-05T07:40:25;3.00;99.90
15596;DHT22;7898;48.658;9.068;2023-03-05T07:42:52;2.70;99.90
15596;DHT22;7898;48.658;9.068;2023-03-05T07:45:19;3.40;99.90
15596;DHT22;7898;48.658;9.068;2023-03-05T07:47:46;3.40;99.90
15596;DHT22;7898;48.658;9.068;2023-03-05T07:50:14;2.90;99.90
15596;DHT22;7898;48.658;9.068;2023-03-05T07:52:42;2.90;99.90
15596;DHT22;7898;48.658;9.068;2023-03-05T07:55:09;3.20;99.90
15596;DHT22;7898;48.658;9.068;2023-03-05T07:57:36;3.00;99.90
15596;DHT22;7898;48.658;9.068;2023-03-05T08:00:04;3.00;99.90
15596;DHT22;7898;48.658;9.068;2023-03-05T08:02:31;3.10;99.90
15596;DHT22;7898;48.658;9.068;2023-03-05T08:04:59;3.10;99.90
15596;DHT22;7898;48.658;9.068;2023-03-05T08:07:27;3.20;99.90
15596;DHT22;7898;48.658;9.068;2023-03-05T08:09:54;3.20;99.90
15596;DHT22;7898;48.658;9.068;2023-03-05T08:12:21;3.20;99.90
15596;DHT22;7898;48.658;9.068;2023-03-05T08:14:49;3.20;99.90
15596;DHT22;7898;48.658;9.068;2023-03-05T08:17:19;3.60;99.90
15596;DHT22;7898;48.658;9.068;2023-03-05T08:39:33;3.60;99.90
15596;DHT22;7898;48.658;9.068;2023-03-05T08:42:00;3.70;99.90
15596;DHT22;7898;48.658;9.068;2023-03-05T08:44:27;4.20;99.90
15596;DHT22;7898;48.658;9.068;2023-03-05T08:46:56;3.80;99.90
15596;DHT22;7898;48.658;9.068;2023-03-05T08:49:23;4.70;99.90
15596;DHT22;7898;48.658;9.068;2023-03-05T08:51:50;3.90;99.90
15596;DHT22;7898;48.658;9.068;2023-03-05T08:54:17;4.50;99.90
15596;DHT22;7898;48.658;9.068;2023-03-05T08:56:44;4.80;99.90
15596;DHT22;7898;48.658;9.068;2023-03-05T08:59:11;4.00;99.90
15596;DHT22;7898;48.658;9.068;2023-03-05T09:01:38;4.10;99.90
15596;DHT22;7898;48.658;9.068;2023-03-05T09:04:08;4.60;99.90
15596;DHT22;7898;48.658;9.068;2023-03-05T09:06:35;4.20;99.90
15596;DHT22;7898;48.658;9.068;2023-03-05T09:09:05;4.40;99.90
15596;DHT22;7898;48.658;9.068;2023-03-05T09:11:32;4.20;99.90
15596;DHT22;7898;48.658;9.068;2023-03-05T09:14:28;3.70;99.90
15596;DHT22;7898;48.658;9.068;2023-03-05T09:17:14;4.20;99.90
15596;DHT22;7898;48.658;9.068;2023-03-05T09:23:22;4.60;99.90
15596;DHT22;7898;48.658;9.068;2023-03-05T09:25:50;4.60;99.90
15596;DHT22;7898;48.658;9.068;2023-03-05T09:28:19;5.60;99.90
15596;DHT22;7898;48.658;9.068;2023-03-05T09:30:53;4.80;99.90
15596;DHT22;7898;48.658;9.068;2023-03-05T09:40:54;4.40;99.90
15596;DHT22;7898;48.658;9.068;2023-03-05T09:43:33;4.90;99.90
15596;DHT22;7898;48.658;9.068;2023-03-05T09:46:19;5.20;99.90
15596;DHT22;7898;48.658;9.068;2023-03-05T09:49:28;4.90;99.90
15596;DHT22;7898;48.658;9.068;2023-03-05T09:55:42;4.80;99.90
15596;DHT22;7898;48.658;9.068;2023-03-05T10:08:40;5.00;99.90
15596;DHT22;7898;48.658;9.068;2023-03-05T10:12:04;4.60;99.90
15596;DHT22;7898;48.658;9.068;2023-03-05T10:14:56;4.70;99.90
15596;DHT22;7898;48.658;9.068;2023-03-05T10:17:58;4.90;99.90
15596;DHT22;7898;48.658;9.068;2023-03-05T10:24:05;5.00;99.90
15596;DHT22;7898;48.658;9.068;2023-03-05T10:27:16;5.00;99.90
15596;DHT22;7898;48.658;9.068;2023-03-05T10:30:03;5.10;99.90
15596;DHT22;7898;48.658;9.068;2023-03-05T10:33:00;5.10;99.90
15596;DHT22;7898;48.658;9.068;2023-03-05T10:35:58;5.20;99.90
15596;DHT22;7898;48.658;9.068;2023-03-05T10:55:19;5.40;99.90
15596;DHT22;7898;48.658;9.068;2023-03-05T10:57:47;5.40;99.90
15596;DHT22;7898;48.658;9.068;2023-03-05T11:00:58;5.30;99.90
15596;DHT22;7898;48.658;9.068;2023-03-05T11:03:45;5.30;99.90
15596;DHT22;7898;48.658;9.068;2023-03-05T11:06:26;5.40;99.90
15596;DHT22;7898;48.658;9.068;2023-03-05T11:08:54;5.30;99.90
15596;DHT22;7898;48.658;9.068;2023-03-05T11:11:22;5.30;99.90
15596;DHT22;7898;48.658;9.068;2023-03-05T11:13:54;5.10;99.90
15596;DHT22;7898;48.658;9.068;2023-03-05T11:16:23;5.50;99.90
15596;DHT22;7898;48.658;9.068;2023-03-05T11:19:16;5.00;99.90
15596;DHT22;7898;48.658;9.068;2023-03-05T11:21:44;5.00;99.90
15596;DHT22;7898;48.658;9.068;2023-03-05T11:24:13;5.00;99.90
15596;DHT22;7898;48.658;9.068;2023-03-05T11:26:51;5.00;99.90
15596;DHT22;7898;48.658;9.068;2023-03-05T11:29:46;5.00;99.90
15596;DHT22;7898;48.658;9.068;2023-03-05T11:32:20;5.00;99.90
15596;DHT22;7898;48.658;9.068;2023-03-05T11:34:48;5.20;99.90
15596;DHT22;7898;48.658;9.068;2023-03-05T11:37:22;4.90;99.90
15596;DHT22;7898;48.658;9.068;2023-03-05T11:40:07;4.90;99.90
15596;DHT22;7898;48.658;9.068;2023-03-05T11:42:41;5.00;99.90
15596;DHT22;7898;48.658;9.068;2023-03-05T11:45:16;5.00;99.90
15596;DHT22;7898;48.658;9.068;2023-03-05T11:47:48;5.00;99.90
15596;DHT22;7898;48.658;9.068;2023-03-05T11:50:20;5.10;99.90
15596;DHT22;7898;48.658;9.068;2023-03-05T11:52:48;5.00;99.90
15596;DHT22;7898;48.658;9.068;2023-03-05T11:55:18;5.00;99.90
15596;DHT22;7898;48.658;9.068;2023-03-05T11:57:51;5.00;99.90
15596;DHT22;7898;48.658;9.068;2023-03-05T12:00:23;4.90;99.90
15596;DHT22;7898;48.658;9.068;2023-03-05T12:03:03;4.90;99.90
15596;DHT22;7898;48.658;9.068;2023-03-05T12:05:33;4.80;99.90
15596;DHT22;7898;48.658;9.068;2023-03-05T12:08:03;4.80;99.90
15596;DHT22;7898;48.658;9.068;2023-03-05T12:10:30;4.80;99.90
15596;DHT22;7898;48.658;9.068;2023-03-05T12:13:03;4.90;99.90
15596;DHT22;7898;48.658;9.068;2023-03-05T12:15:54;4.50;99.90
15596;DHT22;7898;48.658;9.068;2023-03-05T12:18:34;4.90;99.90
15596;DHT22;7898;48.658;9.068;2023-03-05T12:21:06;4.90;99.90
15596;DHT22;7898;48.658;9.068;2023-03-05T12:23:45;5.00;99.90
15596;DHT22;7898;48.658;9.068;2023-03-05T12:26:13;4.90;99.90
15596;DHT22;7898;48.658;9.068;2023-03-05T12:28:55;4.90;99.90
15596;DHT22;7898;48.658;9.068;2023-03-05T12:31:37;5.00;99.90
15596;DHT22;7898;48.658;9.068;2023-03-05T12:34:35;5.30;99.90
15596;DHT22;7898;48.658;9.068;2023-03-05T12:37:03;4.60;99.90
15596;DHT22;7898;48.658;9.068;2023-03-05T12:39:48;4.60;99.90
15596;DHT22;7898;48.658;9.068;2023-03-05T12:42:43;4.50;99.90
15596;DHT22;7898;48.658;9.068;2023-03-05T12:45:33;4.50;99.90
15596;DHT22;7898;48.658;9.068;2023-03-05T12:51:12;4.50;99.90
15596;DHT22;7898;48.658;9.068;2023-03-05T12:53:39;4.60;99.90
15596;DHT22;7898;48.658;9.068;2023-03-05T12:56:15;4.60;99.90
15596;DHT22;7898;48.658;9.068;2023-03-05T12:58:46;4.60;99.90
15596;DHT22;7898;48.658;9.068;2023-03-05T13:01:26;4.70;99.90
15596;DHT22;7898;48.658;9.068;2023-03-05T13:03:57;4.70;99.90
15596;DHT22;7898;48.658;9.068;2023-03-05T13:06:28;4.70;99.90
15596;DHT22;7898;48.658;9.068;2023-03-05T13:08:59;4.70;99.90
15596;DHT22;7898;48.658;9.068;2023-03-05T13:11:29;4.50;99.90
15596;DHT22;7898;48.658;9.068;2023-03-05T13:13:59;4.60;99.90
15596;DHT22;7898;48.658;9.068;2023-03-05T13:16:34;4.60;99.90
15596;DHT22;7898;48.658;9.068;2023-03-05T13:19:02;4.60;99.90
15596;DHT22;7898;48.658;9.068;2023-03-05T13:21:31;5.10;99.90
15596;DHT22;7898;48.658;9.068;2023-03-05T13:24:01;4.70;99.90
15596;DHT22;7898;48.658;9.068;2023-03-05T13:26:29;4.70;99.90
15596;DHT22;7898;48.658;9.068;2023-03-05T13:29:05;4.60;99.90
15596;DHT22;7898;48.658;9.068;2023-03-05T13:31:35;4.60;99.90
15596;DHT22;7898;48.658;9.068;2023-03-05T13:34:10;4.60;99.90
15596;DHT22;7898;48.658;9.068;2023-03-05T13:36:37;4.60;99.90
15596;DHT22;7898;48.658;9.068;2023-03-05T13:39:05;4.60;99.90
15596;DHT22;7898;48.658;9.068;2023-03-05T13:41:32;4.60;99.90
15596;DHT22;7898;48.658;9.068;2023-03-05T13:44:01;4.90;99.90
15596;DHT22;7898;48.658;9.068;2023-03-05T13:46:30;4.70;99.90
15596;DHT22;7898;48.658;9.068;2023-03-05T13:49:17;5.10;99.90
15596;DHT22;7898;48.658;9.068;2023-03-05T13:51:46;4.90;99.90
15596;DHT22;7898;48.658;9.068;2023-03-05T13:54:15;4.90;99.90
15596;DHT22;7898;48.658;9.068;2023-03-05T13:56:53;4.90;99.90
15596;DHT22;7898;48.658;9.068;2023-03-05T13:59:22;5.00;99.90
15596;DHT22;7898;48.658;9.068;2023-03-05T14:01:50;5.10;99.90
15596;DHT22;7898;48.658;9.068;2023-03-05T14:04:21;5.20;99.90
15596;DHT22;7898;48.658;9.068;2023-03-05T14:06:52;5.80;99.90
15596;DHT22;7898;48.658;9.068;2023-03-05T14:09:22;5.20;99.90
15596;DHT22;7898;48.658;9.068;2023-03-05T14:11:57;5.30;99.90
15596;DHT22;7898;48.658;9.068;2023-03-05T14:14:25;5.40;99.90
15596;DHT22;7898;48.658;9.068;2023-03-05T14:16:53;5.40;99.90
15596;DHT22;7898;48.658;9.068;2023-03-05T14:19:34;5.40;99.90
15596;DHT22;7898;48.658;9.068;2023-03-05T14:22:02;5.40;99.90
15596;DHT22;7898;48.658;9.068;2023-03-05T14:24:30;5.40;99.90
15596;DHT22;7898;48.658;9.068;2023-03-05T14:26:59;5.30;99.90
15596;DHT22;7898;48.658;9.068;2023-03-05T14:29:28;5.30;99.90
15596;DHT22;7898;48.658;9.068;2023-03-05T14:31:58;5.20;99.90
15596;DHT22;7898;48.658;9.068;2023-03-05T14:34:28;5.20;99.90
15596;DHT22;7898;48.658;9.068;2023-03-05T14:36:59;5.10;99.90
15596;DHT22;7898;48.658;9.068;2023-03-05T14:39:52;5.10;99.90
15596;DHT22;7898;48.658;9.068;2023-03-05T14:42:28;5.10;99.90
15596;DHT22;7898;48.658;9.068;2023-03-05T14:44:58;5.10;99.90
15596;DHT22;7898;48.658;9.068;2023-03-05T14:47:25;5.00;99.90
15596;DHT22;7898;48.658;9.068;2023-03-05T14:49:53;5.00;99.90
15596;DHT22;7898;48.658;9.068;2023-03-05T14:52:23;4.90;99.90
15596;DHT22;7898;48.658;9.068;2023-03-05T14:54:51;5.00;99.90
15596;DHT22;7898;48.658;9.068;2023-03-05T14:57:21;4.80;99.90
15596;DHT22;7898;48.658;9.068;2023-03-05T14:59:48;4.80;99.90
15596;DHT22;7898;48.658;9.068;2023-03-05T15:02:17;4.80;99.90
15596;DHT22;7898;48.658;9.068;2023-03-05T15:04:45;4.70;99.90
15596;DHT22;7898;48.658;9.068;2023-03-05T15:07:17;5.00;99.90
15596;DHT22;7898;48.658;9.068;2023-03-05T15:09:46;4.60;99.90
15596;DHT22;7898;48.658;9.068;2023-03-05T15:12:14;4.60;99.90
15596;DHT22;7898;48.658;9.068;2023-03-05T15:14:42;4.60;99.90
15596;DHT22;7898;48.658;9.068;2023-03-05T15:17:20;4.60;99.90
15596;DHT22;7898;48.658;9.068;2023-03-05T15:19:48;4.40;99.90
15596;DHT22;7898;48.658;9.068;2023-03-05T15:22:15;4.50;99.90
15596;DHT22;7898;48.658;9.068;2023-03-05T15:24:43;4.50;99.90
15596;DHT22;7898;48.658;9.068;2023-03-05T15:27:11;4.50;99.90
15596;DHT22;7898;48.658;9.068;2023-03-05T15:29:39;4.40;99.90
15596;DHT22;7898;48.658;9.068;2023-03-05T15:32:06;4.40;99.90
15596;DHT22;7898;48.658;9.068;2023-03-05T15:34:33;4.40;99.90
15596;DHT22;7898;48.658;9.068;2023-03-05T15:37:01;4.40;99.90
15596;DHT22;7898;48.658;9.068;2023-03-05T15:39:28;4.40;99.90
15596;DHT22;7898;48.658;9.068;2023-03-05T15:41:56;4.30;99.90
15596;DHT22;7898;48.658;9.068;2023-03-05T15:44:24;4.30;99.90
15596;DHT22;7898;48.658;9.068;2023-03-05T15:46:52;4.30;99.90
15596;DHT22;7898;48.658;9.068;2023-03-05T15:49:26;4.30;99.90
15596;DHT22;7898;48.658;9.068;2023-03-05T15:52:12;4.20;99.90
15596;DHT22;7898;48.658;9.068;2023-03-05T15:54:46;4.20;99.90
15596;DHT22;7898;48.658;9.068;2023-03-05T15:57:20;4.30;99.90
15596;DHT22;7898;48.658;9.068;2023-03-05T15:59:53;4.20;99.90
15596;DHT22;7898;48.658;9.068;2023-03-05T16:02:21;4.20;99.90
15596;DHT22;7898;48.658;9.068;2023-03-05T16:04:52;4.20;99.90
15596;DHT22;7898;48.658;9.068;2023-03-05T16:07:25;4.20;99.90
15596;DHT22;7898;48.658;9.068;2023-03-05T16:10:11;4.10;99.90
15596;DHT22;7898;48.658;9.068;2023-03-05T16:13:01;4.10;99.90
15596;DHT22;7898;48.658;9.068;2023-03-05T16:15:37;4.10;99.90
15596;DHT22;7898;48.658;9.068;2023-03-05T16:18:08;4.10;99.90
15596;DHT22;7898;48.658;9.068;2023-03-05T16:20:36;4.00;99.90
15596;DHT22;7898;48.658;9.068;2023-03-05T16:23:04;4.00;99.90
15596;DHT22;7898;48.658;9.068;2023-03-05T16:25:31;4.00;99.90
15596;DHT22;7898;48.658;9.068;2023-03-05T16:27:58;4.20;99.90
15596;DHT22;7898;48.658;9.068;2023-03-05T16:30:25;3.90;99.90
15596;DHT22;7898;48.658;9.068;2023-03-05T16:32:54;3.80;99.90
15596;DHT22;7898;48.658;9.068;2023-03-05T16:35:21;3.80;99.90
15596;DHT22;7898;48.658;9.068;2023-03-05T16:37:48;3.80;99.90
15596;DHT22;7898;48.658;9.068;2023-03-05T16:40:15;3.70;99.90
15596;DHT22;7898;48.658;9.068;2023-03-05T16:42:44;3.60;99.90
15596;DHT22;7898;48.658;9.068;2023-03-05T16:45:12;3.60;99.90
15596;DHT22;7898;48.658;9.068;2023-03-05T16:47:39;3.60;99.90
15596;DHT22;7898;48.658;9.068;2023-03-05T16:50:10;3.60;99.90
15596;DHT22;7898;48.658;9.068;2023-03-05T16:52:39;3.70;99.90
15596;DHT22;7898;48.658;9.068;2023-03-05T16:55:06;4.30;99.90
15596;DHT22;7898;48.658;9.068;2023-03-05T16:57:34;3.60;99.90
15596;DHT22;7898;48.658;9.068;2023-03-05T17:04:41;3.00;99.90
15596;DHT22;7898;48.658;9.068;2023-03-05T17:07:21;3.50;99.90
15596;DHT22;7898;48.658;9.068;2023-03-05T17:10:07;3.50;99.90
15596;DHT22;7898;48.658;9.068;2023-03-05T17:15:58;4.40;99.90
15596;DHT22;7898;48.658;9.068;2023-03-05T17:18:27;3.40;99.90
15596;DHT22;7898;48.658;9.068;2023-03-05T17:21:09;3.30;99.90
15596;DHT22;7898;48.658;9.068;2023-03-05T17:24:27;3.30;99.90
15596;DHT22;7898;48.658;9.068;2023-03-05T17:27:00;3.30;99.90
15596;DHT22;7898;48.658;9.068;2023-03-05T17:29:28;3.30;99.90
15596;DHT22;7898;48.658;9.068;2023-03-05T17:31:58;3.20;99.90
15596;DHT22;7898;48.658;9.068;2023-03-05T17:34:28;3.30;99.90
15596;DHT22;7898;48.658;9.068;2023-03-05T17:37:04;3.30;99.90
15596;DHT22;7898;48.658;9.068;2023-03-05T17:39:33;3.80;99.90
15596;DHT22;7898;48.658;9.068;2023-03-05T17:42:04;3.30;99.90